sensor_id;sensor_type;location;lat;lon;timestamp;pressure;altitude;pressure_sealevel;temperature;humidity
48077;BME280;33854;57.708;12.008;2022-12-07T00:01:32;100610.69;;;-2.32;100.00
48077;BME280;33854;57.708;12.008;2022-12-07T00:03:58;100609.84;;;-2.27;100.00
48077;BME280;33854;57.708;12.008;2022-12-07T00:06:29;100603.03;;;-2.28;100.00
48077;BME280;33854;57.708;12.008;2022-12-07T00:08:55;100590.25;;;-2.28;100.00
48077;BME280;33854;57.708;12.008;2022-12-07T00:11:21;100583.41;;;-2.30;100.00
48077;BME280;33854;57.708;12.008;2022-12-07T00:13:47;100589.41;;;-2.26;100.00
48077;BME280;33854;57.708;12.008;2022-12-07T00:16:16;100586.84;;;-2.29;100.00
48077;BME280;33854;57.708;12.008;2022-12-07T00:18:42;100578.31;;;-2.28;100.00
48077;BME280;33854;57.708;12.008;2022-12-07T00:21:11;100583.44;;;-2.26;100.00
48077;BME280;33854;57.708;12.008;2022-12-07T00:23:37;100381.22;;;-3.43;100.00
48077;BME280;33854;57.708;12.008;2022-12-07T00:26:06;100578.31;;;-2.26;100.00
48077;BME280;33854;57.708;12.008;2022-12-07T00:28:32;100582.63;;;-2.24;100.00
48077;BME280;33854;57.708;12.008;2022-12-07T00:31:06;100580.03;;;-2.21;100.00
48077;BME280;33854;57.708;12.008;2022-12-07T00:33:32;100576.66;;;-2.21;100.00
48077;BME280;33854;57.708;12.008;2022-12-07T00:35:58;100572.38;;;-2.24;100.00
48077;BME280;33854;57.708;12.008;2022-12-07T00:38:24;100579.22;;;-2.21;100.00
48077;BME280;33854;57.708;12.008;2022-12-07T00:40:59;100574.09;;;-2.20;100.00
48077;BME280;33854;57.708;12.008;2022-12-07T00:43:25;100579.19;;;-2.23;100.00
48077;BME280;33854;57.708;12.008;2022-12-07T00:45:50;100579.19;;;-2.26;100.00
48077;BME280;33854;57.708;12.008;2022-12-07T00:48:15;100575.75;;;-2.30;100.00
48077;BME280;33854;57.708;12.008;2022-12-07T00:50:41;100566.41;;;-2.31;100.00
48077;BME280;33854;57.708;12.008;2022-12-07T00:53:06;100567.25;;;-2.33;100.00
48077;BME280;33854;57.708;12.008;2022-12-07T00:55:34;100562.13;;;-2.36;100.00
48077;BME280;33854;57.708;12.008;2022-12-07T00:58:00;100558.69;;;-2.40;100.00
48077;BME280;33854;57.708;12.008;2022-12-07T01:00:25;100562.09;;;-2.39;100.00
48077;BME280;33854;57.708;12.008;2022-12-07T01:02:50;100562.94;;;-2.40;100.00
48077;BME280;33854;57.708;12.008;2022-12-07T01:05:15;100557.00;;;-2.36;100.00
48077;BME280;33854;57.708;12.008;2022-12-07T01:07:41;100556.16;;;-2.34;100.00
48077;BME280;33854;57.708;12.008;2022-12-07T01:10:06;100551.91;;;-2.32;100.00
48077;BME280;33854;57.708;12.008;2022-12-07T01:12:31;100556.16;;;-2.34;100.00
48077;BME280;33854;57.708;12.008;2022-12-07T01:14:57;100544.22;;;-2.35;100.00
48077;BME280;33854;57.708;12.008;2022-12-07T01:17:22;100547.66;;;-2.33;100.00
48077;BME280;33854;57.708;12.008;2022-12-07T01:19:47;100545.94;;;-2.31;100.00
48077;BME280;33854;57.708;12.008;2022-12-07T01:22:12;100548.50;;;-2.27;100.00
48077;BME280;33854;57.708;12.008;2022-12-07T01:24:37;100548.53;;;-2.24;100.00
48077;BME280;33854;57.708;12.008;2022-12-07T01:27:03;100539.16;;;-2.22;100.00
48077;BME280;33854;57.708;12.008;2022-12-07T01:29:28;100542.53;;;-2.23;100.00
48077;BME280;33854;57.708;12.008;2022-12-07T01:31:53;100540.84;;;-2.20;100.00
48077;BME280;33854;57.708;12.008;2022-12-07T01:34:18;100534.91;;;-2.19;100.00
48077;BME280;33854;57.708;12.008;2022-12-07T01:36:44;100522.09;;;-2.17;100.00
48077;BME280;33854;57.708;12.008;2022-12-07T01:39:09;100524.66;;;-2.17;100.00
48077;BME280;33854;57.708;12.008;2022-12-07T01:41:36;100524.69;;;-2.16;100.00
48077;BME280;33854;57.708;12.008;2022-12-07T01:46:35;100520.44;;;-2.11;100.00
48077;BME280;33854;57.708;12.008;2022-12-07T01:49:01;100518.72;;;-2.10;100.00
48077;BME280;33854;57.708;12.008;2022-12-07T01:51:26;100510.19;;;-2.06;100.00
48077;BME280;33854;57.708;12.008;2022-12-07T01:53:52;100510.19;;;-2.03;100.00
48077;BME280;33854;57.708;12.008;2022-12-07T01:56:18;100513.63;;;-2.01;100.00
48077;BME280;33854;57.708;12.008;2022-12-07T01:58:45;100509.34;;;-2.02;100.00
48077;BME280;33854;57.708;12.008;2022-12-07T02:01:10;100505.94;;;-2.03;100.00
48077;BME280;33854;57.708;12.008;2022-12-07T02:03:40;100502.53;;;-2.03;100.00
48077;BME280;33854;57.708;12.008;2022-12-07T02:06:05;100506.81;;;-2.02;100.00
48077;BME280;33854;57.708;12.008;2022-12-07T02:08:31;100501.69;;;-2.02;100.00
48077;BME280;33854;57.708;12.008;2022-12-07T02:10:57;100496.56;;;-2.02;100.00
48077;BME280;33854;57.708;12.008;2022-12-07T02:13:23;100491.47;;;-2.04;100.00
48077;BME280;33854;57.708;12.008;2022-12-07T02:28:19;100496.59;;;-1.96;100.00
48077;BME280;33854;57.708;12.008;2022-12-07T02:30:52;100491.44;;;-1.95;100.00
48077;BME280;33854;57.708;12.008;2022-12-07T02:33:22;100491.44;;;-1.95;100.00
48077;BME280;33854;57.708;12.008;2022-12-07T02:41:06;100477.84;;;-1.91;100.00
48077;BME280;33854;57.708;12.008;2022-12-07T02:43:34;100482.09;;;-1.88;100.00
48077;BME280;33854;57.708;12.008;2022-12-07T02:46:02;100477.81;;;-1.86;100.00
48077;BME280;33854;57.708;12.008;2022-12-07T02:48:29;100474.41;;;-1.85;100.00
48077;BME280;33854;57.708;12.008;2022-12-07T02:50:56;100472.69;;;-1.83;100.00
48077;BME280;33854;57.708;12.008;2022-12-07T02:53:31;100462.47;;;-1.83;100.00
48077;BME280;33854;57.708;12.008;2022-12-07T02:55:57;100463.31;;;-1.83;100.00
48077;BME280;33854;57.708;12.008;2022-12-07T02:58:28;100462.50;;;-1.82;100.00
48077;BME280;33854;57.708;12.008;2022-12-07T03:03:39;100450.53;;;-1.83;100.00
48077;BME280;33854;57.708;12.008;2022-12-07T03:06:15;100452.25;;;-1.80;100.00
48077;BME280;33854;57.708;12.008;2022-12-07T03:08:47;100447.97;;;-1.83;100.00
48077;BME280;33854;57.708;12.008;2022-12-07T03:14:06;100437.75;;;-1.80;100.00
48077;BME280;33854;57.708;12.008;2022-12-07T03:16:39;100439.44;;;-1.80;100.00
48077;BME280;33854;57.708;12.008;2022-12-07T03:19:10;100432.66;;;-1.78;100.00
48077;BME280;33854;57.708;12.008;2022-12-07T03:21:49;100436.91;;;-1.77;100.00
48077;BME280;33854;57.708;12.008;2022-12-07T03:24:21;100431.78;;;-1.76;100.00
48077;BME280;33854;57.708;12.008;2022-12-07T03:26:47;100426.66;;;-1.74;100.00
48077;BME280;33854;57.708;12.008;2022-12-07T03:29:17;100429.22;;;-1.73;100.00
48077;BME280;33854;57.708;12.008;2022-12-07T03:31:45;100423.25;;;-1.73;100.00
48077;BME280;33854;57.708;12.008;2022-12-07T03:34:18;100430.06;;;-1.72;100.00
48077;BME280;33854;57.708;12.008;2022-12-07T03:41:44;100415.56;;;-1.64;100.00
48077;BME280;33854;57.708;12.008;2022-12-07T03:44:10;100419.81;;;-1.63;100.00
48077;BME280;33854;57.708;12.008;2022-12-07T03:46:37;100425.78;;;-1.65;100.00
48077;BME280;33854;57.708;12.008;2022-12-07T03:51:51;100416.41;;;-1.62;100.00
48077;BME280;33854;57.708;12.008;2022-12-07T03:54:22;100418.13;;;-1.64;100.00
48077;BME280;33854;57.708;12.008;2022-12-07T03:56:49;100418.13;;;-1.61;100.00
48077;BME280;33854;57.708;12.008;2022-12-07T03:59:15;100418.13;;;-1.62;100.00
48077;BME280;33854;57.708;12.008;2022-12-07T04:01:42;100407.88;;;-1.62;100.00
48077;BME280;33854;57.708;12.008;2022-12-07T04:04:08;100407.03;;;-1.61;100.00
48077;BME280;33854;57.708;12.008;2022-12-07T04:06:33;100405.31;;;-1.59;100.00
48077;BME280;33854;57.708;12.008;2022-12-07T04:08:58;100407.91;;;-1.61;100.00
48077;BME280;33854;57.708;12.008;2022-12-07T04:11:24;100405.34;;;-1.58;100.00
48077;BME280;33854;57.708;12.008;2022-12-07T04:13:49;100400.22;;;-1.58;100.00
48077;BME280;33854;57.708;12.008;2022-12-07T04:16:33;100404.47;;;-1.55;100.00
48077;BME280;33854;57.708;12.008;2022-12-07T04:18:58;100402.72;;;-1.55;100.00
48077;BME280;33854;57.708;12.008;2022-12-07T04:21:23;100392.50;;;-1.52;100.00
48077;BME280;33854;57.708;12.008;2022-12-07T04:23:48;100398.47;;;-1.50;100.00
48077;BME280;33854;57.708;12.008;2022-12-07T04:26:14;100390.78;;;-1.47;100.00
48077;BME280;33854;57.708;12.008;2022-12-07T04:28:39;100395.91;;;-1.45;100.00
48077;BME280;33854;57.708;12.008;2022-12-07T04:31:04;100387.34;;;-1.43;100.00
48077;BME280;33854;57.708;12.008;2022-12-07T04:33:29;100388.22;;;-1.42;100.00
48077;BME280;33854;57.708;12.008;2022-12-07T04:35:55;100382.25;;;-1.38;100.00
48077;BME280;33854;57.708;12.008;2022-12-07T04:38:20;100382.22;;;-1.35;100.00
48077;BME280;33854;57.708;12.008;2022-12-07T04:40:45;100385.59;;;-1.32;100.00
48077;BME280;33854;57.708;12.008;2022-12-07T04:43:10;100384.78;;;-1.32;100.00
48077;BME280;33854;57.708;12.008;2022-12-07T04:45:36;100388.16;;;-1.26;100.00
48077;BME280;33854;57.708;12.008;2022-12-07T04:48:01;100392.44;;;-1.28;100.00
48077;BME280;33854;57.708;12.008;2022-12-07T04:50:26;100384.75;;;-1.28;100.00
48077;BME280;33854;57.708;12.008;2022-12-07T04:52:51;100386.44;;;-1.25;100.00
48077;BME280;33854;57.708;12.008;2022-12-07T04:55:16;100379.63;;;-1.25;100.00
48077;BME280;33854;57.708;12.008;2022-12-07T04:57:42;100388.16;;;-1.21;100.00
48077;BME280;33854;57.708;12.008;2022-12-07T05:00:07;100380.44;;;-1.20;100.00
48077;BME280;33854;57.708;12.008;2022-12-07T05:02:32;100382.16;;;-1.19;100.00
48077;BME280;33854;57.708;12.008;2022-12-07T05:04:58;100379.56;;;-1.17;100.00
48077;BME280;33854;57.708;12.008;2022-12-07T05:07:23;100378.72;;;-1.16;100.00
48077;BME280;33854;57.708;12.008;2022-12-07T05:09:48;100372.75;;;-1.15;100.00
48077;BME280;33854;57.708;12.008;2022-12-07T05:12:13;100376.16;;;-1.15;100.00
48077;BME280;33854;57.708;12.008;2022-12-07T05:14:39;100373.59;;;-1.13;100.00
48077;BME280;33854;57.708;12.008;2022-12-07T05:17:04;100368.44;;;-1.11;100.00
48077;BME280;33854;57.708;12.008;2022-12-07T05:19:29;100377.00;;;-1.12;100.00
48077;BME280;33854;57.708;12.008;2022-12-07T05:21:54;100371.03;;;-1.13;100.00
48077;BME280;33854;57.708;12.008;2022-12-07T05:24:20;100369.31;;;-1.11;100.00
48077;BME280;33854;57.708;12.008;2022-12-07T05:26:45;100370.16;;;-1.10;100.00
48077;BME280;33854;57.708;12.008;2022-12-07T05:29:12;100362.47;;;-1.10;100.00
48077;BME280;33854;57.708;12.008;2022-12-07T05:31:37;100363.31;;;-1.08;100.00
48077;BME280;33854;57.708;12.008;2022-12-07T05:34:02;100364.19;;;-1.06;100.00
48077;BME280;33854;57.708;12.008;2022-12-07T05:36:27;100362.47;;;-1.07;100.00
48077;BME280;33854;57.708;12.008;2022-12-07T05:38:53;100360.75;;;-1.05;100.00
48077;BME280;33854;57.708;12.008;2022-12-07T05:41:19;100358.19;;;-1.05;100.00
48077;BME280;33854;57.708;12.008;2022-12-07T05:44:02;100355.63;;;-1.01;100.00
48077;BME280;33854;57.708;12.008;2022-12-07T05:46:28;100356.50;;;-1.03;100.00
48077;BME280;33854;57.708;12.008;2022-12-07T05:48:53;100356.47;;;-1.05;100.00
48077;BME280;33854;57.708;12.008;2022-12-07T05:51:18;100353.06;;;-1.04;100.00
48077;BME280;33854;57.708;12.008;2022-12-07T05:53:44;100359.03;;;-1.05;100.00
48077;BME280;33854;57.708;12.008;2022-12-07T05:56:09;100362.47;;;-1.04;100.00
48077;BME280;33854;57.708;12.008;2022-12-07T05:58:34;100363.31;;;-1.04;100.00
48077;BME280;33854;57.708;12.008;2022-12-07T06:01:18;100364.19;;;-1.06;100.00
48077;BME280;33854;57.708;12.008;2022-12-07T06:03:43;100354.78;;;-1.09;100.00
48077;BME280;33854;57.708;12.008;2022-12-07T06:06:09;100359.06;;;-1.08;100.00
48077;BME280;33854;57.708;12.008;2022-12-07T06:08:35;100358.22;;;-1.10;100.00
48077;BME280;33854;57.708;12.008;2022-12-07T06:11:00;100357.34;;;-1.09;100.00
48077;BME280;33854;57.708;12.008;2022-12-07T06:13:44;100356.50;;;-1.08;100.00
48077;BME280;33854;57.708;12.008;2022-12-07T06:16:09;100359.91;;;-1.09;100.00
48077;BME280;33854;57.708;12.008;2022-12-07T06:18:34;100363.31;;;-1.08;100.00
48077;BME280;33854;57.708;12.008;2022-12-07T06:20:59;100360.75;;;-1.08;100.00
48077;BME280;33854;57.708;12.008;2022-12-07T06:23:25;100366.75;;;-1.09;100.00
48077;BME280;33854;57.708;12.008;2022-12-07T06:25:50;100363.34;;;-1.10;100.00
48077;BME280;33854;57.708;12.008;2022-12-07T06:28:15;100359.91;;;-1.07;100.00
48077;BME280;33854;57.708;12.008;2022-12-07T06:30:40;100358.19;;;-1.08;100.00
48077;BME280;33854;57.708;12.008;2022-12-07T06:33:06;100365.03;;;-1.10;100.00
48077;BME280;33854;57.708;12.008;2022-12-07T06:35:32;100361.66;;;-1.12;100.00
48077;BME280;33854;57.708;12.008;2022-12-07T06:37:57;100357.34;;;-1.09;100.00
48077;BME280;33854;57.708;12.008;2022-12-07T06:40:22;100359.06;;;-1.11;100.00
48077;BME280;33854;57.708;12.008;2022-12-07T06:42:48;100363.31;;;-1.08;100.00
48077;BME280;33854;57.708;12.008;2022-12-07T06:45:13;100369.31;;;-1.09;100.00
48077;BME280;33854;57.708;12.008;2022-12-07T06:47:38;100359.94;;;-1.10;100.00
48077;BME280;33854;57.708;12.008;2022-12-07T06:50:03;100358.22;;;-1.11;100.00
48077;BME280;33854;57.708;12.008;2022-12-07T06:52:29;100361.63;;;-1.11;100.00
48077;BME280;33854;57.708;12.008;2022-12-07T06:54:55;100365.91;;;-1.10;100.00
48077;BME280;33854;57.708;12.008;2022-12-07T06:57:20;100365.91;;;-1.11;100.00
48077;BME280;33854;57.708;12.008;2022-12-07T06:59:45;100369.34;;;-1.12;100.00
48077;BME280;33854;57.708;12.008;2022-12-07T07:02:10;100364.22;;;-1.16;100.00
48077;BME280;33854;57.708;12.008;2022-12-07T07:04:36;100369.34;;;-1.16;100.00
48077;BME280;33854;57.708;12.008;2022-12-07T07:07:01;100365.09;;;-1.15;100.00
48077;BME280;33854;57.708;12.008;2022-12-07T07:09:26;100366.78;;;-1.12;100.00
48077;BME280;33854;57.708;12.008;2022-12-07T07:11:52;100349.75;;;-1.21;100.00
48077;BME280;33854;57.708;12.008;2022-12-07T07:14:17;100365.91;;;-1.11;100.00
48077;BME280;33854;57.708;12.008;2022-12-07T07:16:44;100361.63;;;-1.09;100.00
48077;BME280;33854;57.708;12.008;2022-12-07T07:19:09;100367.59;;;-1.10;100.00
48077;BME280;33854;57.708;12.008;2022-12-07T07:21:34;100370.16;;;-1.07;100.00
48077;BME280;33854;57.708;12.008;2022-12-07T07:24:00;100367.59;;;-1.09;100.00
48077;BME280;33854;57.708;12.008;2022-12-07T07:26:25;100368.44;;;-1.08;100.00
48077;BME280;33854;57.708;12.008;2022-12-07T07:28:50;100366.75;;;-1.06;100.00
48077;BME280;33854;57.708;12.008;2022-12-07T07:31:15;100368.44;;;-1.08;100.00
48077;BME280;33854;57.708;12.008;2022-12-07T07:33:41;100365.03;;;-1.10;100.00
48077;BME280;33854;57.708;12.008;2022-12-07T07:36:06;100361.66;;;-1.12;100.00
48077;BME280;33854;57.708;12.008;2022-12-07T07:38:31;100371.88;;;-1.09;100.00
48077;BME280;33854;57.708;12.008;2022-12-07T07:40:56;100365.06;;;-1.12;100.00
48077;BME280;33854;57.708;12.008;2022-12-07T07:43:22;100371.88;;;-1.11;100.00
48077;BME280;33854;57.708;12.008;2022-12-07T07:45:47;100371.03;;;-1.13;100.00
48077;BME280;33854;57.708;12.008;2022-12-07T07:48:12;100373.56;;;-1.11;100.00
48077;BME280;33854;57.708;12.008;2022-12-07T07:50:37;100375.28;;;-1.10;100.00
48077;BME280;33854;57.708;12.008;2022-12-07T07:53:03;100371.03;;;-1.10;100.00
48077;BME280;33854;57.708;12.008;2022-12-07T07:55:28;100384.66;;;-1.08;100.00
48077;BME280;33854;57.708;12.008;2022-12-07T07:57:53;100382.13;;;-1.09;100.00
48077;BME280;33854;57.708;12.008;2022-12-07T08:00:19;100382.94;;;-1.09;100.00
48077;BME280;33854;57.708;12.008;2022-12-07T08:02:44;100383.81;;;-1.08;100.00
48077;BME280;33854;57.708;12.008;2022-12-07T08:05:11;100386.38;;;-1.04;100.00
48077;BME280;33854;57.708;12.008;2022-12-07T08:07:36;100387.22;;;-1.03;100.00
48077;BME280;33854;57.708;12.008;2022-12-07T08:10:02;100387.22;;;-1.03;100.00
48077;BME280;33854;57.708;12.008;2022-12-07T08:12:27;100387.22;;;-1.03;100.00
48077;BME280;33854;57.708;12.008;2022-12-07T08:14:53;100379.53;;;-1.03;100.00
48077;BME280;33854;57.708;12.008;2022-12-07T08:17:18;100386.38;;;-1.04;100.00
48077;BME280;33854;57.708;12.008;2022-12-07T08:19:44;100383.00;;;-1.12;100.00
48077;BME280;33854;57.708;12.008;2022-12-07T08:22:09;100377.00;;;-1.14;100.00
48077;BME280;33854;57.708;12.008;2022-12-07T08:24:35;100377.03;;;-1.17;100.00
48077;BME280;33854;57.708;12.008;2022-12-07T08:27:00;100377.03;;;-1.20;100.00
48077;BME280;33854;57.708;12.008;2022-12-07T08:29:26;100378.75;;;-1.25;100.00
48077;BME280;33854;57.708;12.008;2022-12-07T08:31:51;100381.31;;;-1.25;100.00
48077;BME280;33854;57.708;12.008;2022-12-07T08:34:16;100377.94;;;-1.30;100.00
48077;BME280;33854;57.708;12.008;2022-12-07T08:36:41;100371.13;;;-1.37;100.00
48077;BME280;33854;57.708;12.008;2022-12-07T08:39:07;100374.56;;;-1.38;100.00
48077;BME280;33854;57.708;12.008;2022-12-07T08:41:32;100380.50;;;-1.38;100.00
48077;BME280;33854;57.708;12.008;2022-12-07T08:43:57;100378.81;;;-1.42;100.00
48077;BME280;33854;57.708;12.008;2022-12-07T08:46:24;100381.41;;;-1.45;100.00
48077;BME280;33854;57.708;12.008;2022-12-07T08:48:53;100383.97;;;-1.48;100.00
48077;BME280;33854;57.708;12.008;2022-12-07T08:51:20;100394.19;;;-1.46;100.00
48077;BME280;33854;57.708;12.008;2022-12-07T08:53:46;100403.59;;;-1.44;100.00
48077;BME280;33854;57.708;12.008;2022-12-07T08:56:12;100397.59;;;-1.40;100.00
48077;BME280;33854;57.708;12.008;2022-12-07T08:58:37;100395.00;;;-1.37;100.00
48077;BME280;33854;57.708;12.008;2022-12-07T09:01:04;100397.56;;;-1.34;100.00
48077;BME280;33854;57.708;12.008;2022-12-07T09:03:29;100397.56;;;-1.31;100.00
48077;BME280;33854;57.708;12.008;2022-12-07T09:05:55;100397.56;;;-1.32;100.00
48077;BME280;33854;57.708;12.008;2022-12-07T09:08:21;100397.56;;;-1.31;100.00
48077;BME280;33854;57.708;12.008;2022-12-07T09:10:47;100399.28;;;-1.33;100.00
48077;BME280;33854;57.708;12.008;2022-12-07T09:13:13;100400.13;;;-1.31;100.00
48077;BME280;33854;57.708;12.008;2022-12-07T09:15:38;100405.25;;;-1.32;100.00
48077;BME280;33854;57.708;12.008;2022-12-07T09:18:03;100399.28;;;-1.33;100.00
48077;BME280;33854;57.708;12.008;2022-12-07T09:20:28;100410.38;;;-1.32;100.00
48077;BME280;33854;57.708;12.008;2022-12-07T09:22:54;100410.38;;;-1.34;100.00
48077;BME280;33854;57.708;12.008;2022-12-07T09:25:19;100408.66;;;-1.35;100.00
48077;BME280;33854;57.708;12.008;2022-12-07T09:27:44;100410.41;;;-1.41;100.00
48077;BME280;33854;57.708;12.008;2022-12-07T09:30:09;100412.09;;;-1.40;100.00
48077;BME280;33854;57.708;12.008;2022-12-07T09:32:35;100405.28;;;-1.41;100.00
48077;BME280;33854;57.708;12.008;2022-12-07T09:35:00;100410.41;;;-1.41;100.00
48077;BME280;33854;57.708;12.008;2022-12-07T09:37:25;100420.63;;;-1.40;100.00
48077;BME280;33854;57.708;12.008;2022-12-07T09:39:50;100422.31;;;-1.36;100.00
48077;BME280;33854;57.708;12.008;2022-12-07T09:42:24;100418.06;;;-1.35;100.00
48077;BME280;33854;57.708;12.008;2022-12-07T09:44:51;100425.72;;;-1.31;100.00
48077;BME280;33854;57.708;12.008;2022-12-07T09:47:16;100419.75;;;-1.24;100.00
48077;BME280;33854;57.708;12.008;2022-12-07T09:49:41;100429.09;;;-1.23;100.00
48077;BME280;33854;57.708;12.008;2022-12-07T09:54:33;100423.97;;;-1.18;100.00
48077;BME280;33854;57.708;12.008;2022-12-07T09:57:00;100424.81;;;-1.18;100.00
48077;BME280;33854;57.708;12.008;2022-12-07T09:59:25;100423.09;;;-1.11;100.00
48077;BME280;33854;57.708;12.008;2022-12-07T10:01:51;100428.19;;;-1.03;100.00
48077;BME280;33854;57.708;12.008;2022-12-07T10:04:17;100436.69;;;-1.00;100.00
48077;BME280;33854;57.708;12.008;2022-12-07T10:06:43;100441.81;;;-0.95;100.00
48077;BME280;33854;57.708;12.008;2022-12-07T10:09:09;100444.34;;;-0.86;100.00
48077;BME280;33854;57.708;12.008;2022-12-07T10:11:35;100456.25;;;-0.79;100.00
48077;BME280;33854;57.708;12.008;2022-12-07T10:14:10;100446.81;;;-0.71;100.00
48077;BME280;33854;57.708;12.008;2022-12-07T10:16:38;100459.59;;;-0.61;100.00
48077;BME280;33854;57.708;12.008;2022-12-07T10:19:26;100466.44;;;-0.64;100.00
48077;BME280;33854;57.708;12.008;2022-12-07T10:22:03;100479.22;;;-0.58;100.00
48077;BME280;33854;57.708;12.008;2022-12-07T10:24:28;100486.91;;;-0.57;100.00
48077;BME280;33854;57.708;12.008;2022-12-07T10:26:54;100492.84;;;-0.50;100.00
48077;BME280;33854;57.708;12.008;2022-12-07T10:31:58;100513.34;;;-0.47;100.00
48077;BME280;33854;57.708;12.008;2022-12-07T10:34:31;100521.03;;;-0.47;100.00
48077;BME280;33854;57.708;12.008;2022-12-07T10:40:38;100539.84;;;-0.43;100.00
48077;BME280;33854;57.708;12.008;2022-12-07T10:42:32;100564.59;;;-0.45;100.00
48077;BME280;33854;57.708;12.008;2022-12-07T10:45:08;100573.13;;;-0.42;100.00
48077;BME280;33854;57.708;12.008;2022-12-07T10:47:45;100579.97;;;-0.39;100.00
48077;BME280;33854;57.708;12.008;2022-12-07T10:57:59;100651.81;;;-0.64;100.00
48077;BME280;33854;57.708;12.008;2022-12-07T11:00:27;100667.22;;;-0.67;100.00
48077;BME280;33854;57.708;12.008;2022-12-07T11:05:46;100687.72;;;-0.70;100.00
48077;BME280;33854;57.708;12.008;2022-12-07T11:10:45;100715.03;;;-0.73;100.00
48077;BME280;33854;57.708;12.008;2022-12-07T11:13:26;100727.00;;;-0.84;100.00
48077;BME280;33854;57.708;12.008;2022-12-07T11:18:26;100762.00;;;-0.95;100.00
48077;BME280;33854;57.708;12.008;2022-12-07T11:26:34;100805.50;;;-1.17;100.00
48077;BME280;33854;57.708;12.008;2022-12-07T11:32:17;100833.63;;;-1.36;100.00
48077;BME280;33854;57.708;12.008;2022-12-07T11:37:16;100844.66;;;-1.46;100.00
48077;BME280;33854;57.708;12.008;2022-12-07T11:42:16;100855.69;;;-1.59;100.00
48077;BME280;33854;57.708;12.008;2022-12-07T11:44:55;100856.53;;;-1.60;100.00
48077;BME280;33854;57.708;12.008;2022-12-07T11:52:43;100863.41;;;-1.46;100.00
48077;BME280;33854;57.708;12.008;2022-12-07T11:55:14;100862.66;;;-1.33;100.00
48077;BME280;33854;57.708;12.008;2022-12-07T11:57:43;100879.69;;;-1.35;100.00
48077;BME280;33854;57.708;12.008;2022-12-07T12:00:14;100895.03;;;-1.38;100.00
48077;BME280;33854;57.708;12.008;2022-12-07T12:02:49;100914.59;;;-1.49;100.00
48077;BME280;33854;57.708;12.008;2022-12-07T12:05:17;100932.47;;;-1.55;100.00
48077;BME280;33854;57.708;12.008;2022-12-07T12:07:43;100937.63;;;-1.50;100.00
48077;BME280;33854;57.708;12.008;2022-12-07T12:10:17;100919.94;;;-1.08;100.00
48077;BME280;33854;57.708;12.008;2022-12-07T12:18:17;100927.50;;;3.78;100.00
48077;BME280;33854;57.708;12.008;2022-12-07T12:23:22;101482.06;;;3.00;100.00
48077;BME280;33854;57.708;12.008;2022-12-07T12:25:53;101627.19;;;3.63;100.00
48077;BME280;33854;57.708;12.008;2022-12-07T12:30:44;101836.19;;;4.17;100.00
48077;BME280;33854;57.708;12.008;2022-12-07T12:33:14;101833.63;;;4.16;100.00
48077;BME280;33854;57.708;12.008;2022-12-07T12:35:40;101783.56;;;4.41;100.00
48077;BME280;33854;57.708;12.008;2022-12-07T12:40:49;101574.66;;;4.93;100.00
48077;BME280;33854;57.708;12.008;2022-12-07T12:48:42;101113.69;;;5.70;100.00
48077;BME280;33854;57.708;12.008;2022-12-07T12:53:51;100810.59;;;6.09;100.00
48077;BME280;33854;57.708;12.008;2022-12-07T12:58:46;100648.50;;;6.29;100.00
48077;BME280;33854;57.708;12.008;2022-12-07T13:03:56;100503.25;;;5.77;100.00
48077;BME280;33854;57.708;12.008;2022-12-07T13:08:50;100565.28;;;5.20;100.00
48077;BME280;33854;57.708;12.008;2022-12-07T13:11:19;100615.22;;;5.54;100.00
48077;BME280;33854;57.708;12.008;2022-12-07T13:13:45;100548.03;;;5.21;100.00
48077;BME280;33854;57.708;12.008;2022-12-07T13:18:36;100424.66;;;2.75;100.00
48077;BME280;33854;57.708;12.008;2022-12-07T13:26:17;100937.22;;;-0.30;100.00
48077;BME280;33854;57.708;12.008;2022-12-07T13:28:44;101088.38;;;-0.69;100.00
48077;BME280;33854;57.708;12.008;2022-12-07T13:31:14;101277.03;;;-0.86;100.00
48077;BME280;33854;57.708;12.008;2022-12-07T13:33:43;101428.00;;;-1.03;100.00
48077;BME280;33854;57.708;12.008;2022-12-07T13:36:14;101535.31;;;-1.23;100.00
48077;BME280;33854;57.708;12.008;2022-12-07T13:38:48;101643.59;;;-1.31;100.00
48077;BME280;33854;57.708;12.008;2022-12-07T13:41:15;101700.56;;;-1.43;100.00
48077;BME280;33854;57.708;12.008;2022-12-07T13:44:23;101755.81;;;-1.54;100.00
48077;BME280;33854;57.708;12.008;2022-12-07T13:46:40;101775.09;;;-1.73;100.00
48077;BME280;33854;57.708;12.008;2022-12-07T13:49:28;101785.66;;;-1.96;100.00
48077;BME280;33854;57.708;12.008;2022-12-07T13:51:54;101798.19;;;-2.08;100.00
48077;BME280;33854;57.708;12.008;2022-12-07T13:54:20;101785.09;;;-2.22;100.00
48077;BME280;33854;57.708;12.008;2022-12-07T13:56:50;101781.47;;;-2.32;100.00
48077;BME280;33854;57.708;12.008;2022-12-07T13:59:17;101771.88;;;-2.40;100.00
48077;BME280;33854;57.708;12.008;2022-12-07T14:01:44;101759.75;;;-2.49;100.00
48077;BME280;33854;57.708;12.008;2022-12-07T14:04:30;101723.84;;;-2.55;100.00
48077;BME280;33854;57.708;12.008;2022-12-07T14:06:56;101717.78;;;-2.60;100.00
48077;BME280;33854;57.708;12.008;2022-12-07T14:09:25;101699.66;;;-2.69;100.00
48077;BME280;33854;57.708;12.008;2022-12-07T14:11:52;101678.19;;;-2.77;100.00
48077;BME280;33854;57.708;12.008;2022-12-07T14:14:19;101646.56;;;-2.82;100.00
48077;BME280;33854;57.708;12.008;2022-12-07T14:16:54;101607.19;;;-2.92;100.00
48077;BME280;33854;57.708;12.008;2022-12-07T14:22:07;101553.34;;;-3.01;100.00
48077;BME280;33854;57.708;12.008;2022-12-07T14:24:42;101509.84;;;-3.05;100.00
48077;BME280;33854;57.708;12.008;2022-12-07T14:27:16;101466.19;;;-3.17;100.00